Aviation Digital Data Service (ADDS)

Output produced by METARs form (0732 UTC 22 January 2021)
found at http://aviationweather.gov/metar/data/
 
LKMT 220730Z 20008KT 170V240 CAVOK 09/04 Q1000 NOSIG
LKMT 220700Z 21009KT 170V240 CAVOK 09/04 Q1000 NOSIG
TAF LKMT 220500Z 2206/2312 20012KT CAVOK 
     TEMPO 2206/2312 22018G30KT 
     TEMPO 2306/2312 9999 BKN017 
     PROB30 
     TEMPO 2309/2312 22022G44KT -RA BKN012